Time;durP1;ratioP1;P1;durP2;ratioP2;P2;SDS_P1;SDS_P2;PMS_P1;PMS_P2;Temp;Humidity;BMP_temperature;BMP_pressure;BME280_temperature;BME280_humidity;BME280_pressure;Samples;Min_cycle;Max_cycle;Signal;HPM_P1;HPM_P2
2022/10/13 00:01:00;;;;;;;9.65;6.78;;;;;;;;;;5088702;28;20021;-49
2022/10/13 00:03:26;;;;;;;7.30;6.03;;;;;;;;;;5087749;28;20024;-47
2022/10/13 00:05:53;;;;;;;8.35;6.55;;;;;;;;;;5088781;28;20038;-48
2022/10/13 00:08:20;;;;;;;7.55;6.25;;;;;;;;;;5088177;28;20336;-49
2022/10/13 00:10:48;;;;;;;9.10;6.25;;;;;;;;;;5087856;28;20031;-51
2022/10/13 00:13:15;;;;;;;8.40;6.25;;;;;;;;;;5088331;28;20024;-51
2022/10/13 00:15:42;;;;;;;9.48;6.13;;;;;;;;;;5088473;28;20024;-52
2022/10/13 00:18:08;;;;;;;7.70;5.97;;;;;;;;;;5088420;28;20048;-51
2022/10/13 00:20:35;;;;;;;7.90;6.15;;;;;;;;;;5088048;28;20040;-51
2022/10/13 00:23:02;;;;;;;7.57;6.03;;;;;;;;;;5088185;28;20101;-48
2022/10/13 00:25:28;;;;;;;8.60;5.95;;;;;;;;;;5087373;28;20024;-47
2022/10/13 00:27:54;;;;;;;7.95;5.68;;;;;;;;;;5088961;28;20039;-47
2022/10/13 00:30:20;;;;;;;7.20;5.68;;;;;;;;;;5087970;28;20031;-50
2022/10/13 00:32:46;;;;;;;7.57;5.78;;;;;;;;;;5087881;28;20088;-48
2022/10/13 00:35:12;;;;;;;6.43;4.78;;;;;;;;;;5088127;28;20032;-51
2022/10/13 00:37:39;;;;;;;8.05;5.50;;;;;;;;;;5087930;28;20024;-47
2022/10/13 00:40:06;;;;;;;8.35;5.88;;;;;;;;;;5081914;28;20054;-49
2022/10/13 00:42:32;;;;;;;8.40;6.30;;;;;;;;;;5067253;28;20056;-49
2022/10/13 00:44:58;;;;;;;8.02;5.57;;;;;;;;;;5067575;28;20070;-47
2022/10/13 00:47:24;;;;;;;7.97;6.20;;;;;;;;;;5083064;28;20410;-49
2022/10/13 00:49:51;;;;;;;8.73;6.15;;;;;;;;;;5086929;28;20396;-51
2022/10/13 00:52:19;;;;;;;7.40;5.65;;;;;;;;;;5087475;28;20024;-51
2022/10/13 00:54:46;;;;;;;9.20;6.38;;;;;;;;;;5088136;28;20060;-51
2022/10/13 00:57:12;;;;;;;8.55;6.18;;;;;;;;;;5086110;28;20043;-48
2022/10/13 00:59:39;;;;;;;7.88;5.78;;;;;;;;;;5067373;28;20043;-50
2022/10/13 01:02:06;;;;;;;9.10;6.53;;;;;;;;;;5067138;28;20048;-51
2022/10/13 01:04:42;;;;;;;9.25;6.05;;;;;;;;;;5066936;28;20028;-50
2022/10/13 01:07:09;;;;;;;10.30;5.70;;;;;;;;;;5067361;28;20544;-48
2022/10/13 01:09:38;;;;;;;7.68;5.80;;;;;;;;;;5065459;28;20411;-49
2022/10/13 01:12:12;;;;;;;7.85;5.93;;;;;;;;;;5070296;28;20073;-50
2022/10/13 01:14:49;;;;;;;9.50;5.45;;;;;;;;;;5087255;28;20039;-50
2022/10/13 01:17:23;;;;;;;9.75;6.55;;;;;;;;;;5086687;28;20016;-50
2022/10/13 01:20:09;;;;;;;7.82;6.32;;;;;;;;;;5087267;28;20550;-50
2022/10/13 01:22:53;;;;;;;10.65;6.22;;;;;;;;;;5086824;28;20028;-49
2022/10/13 01:25:19;;;;;;;;;;;;;;;;;;5087182;28;20047;-51
2022/10/13 01:28:04;;;;;;;11.27;7.40;;;;;;;;;;5085758;28;20386;-51
2022/10/13 01:30:34;;;;;;;9.43;6.68;;;;;;;;;;5086565;28;20028;-49
2022/10/13 01:33:00;;;;;;;8.40;5.88;;;;;;;;;;5086630;28;20024;-51
2022/10/13 01:35:44;;;;;;;6.88;5.18;;;;;;;;;;5087457;28;20073;-50
2022/10/13 01:38:16;;;;;;;7.95;6.13;;;;;;;;;;5084321;28;20035;-47
2022/10/13 01:40:46;;;;;;;8.18;5.93;;;;;;;;;;5066676;28;20056;-49
2022/10/13 01:43:12;;;;;;;8.13;5.85;;;;;;;;;;5066516;28;20029;-50
2022/10/13 01:45:42;;;;;;;8.50;5.78;;;;;;;;;;5066462;28;20052;-48
2022/10/13 01:48:09;;;;;;;7.82;5.47;;;;;;;;;;5066630;28;20090;-50
2022/10/13 01:50:36;;;;;;;7.55;5.57;;;;;;;;;;5066356;28;20062;-48
2022/10/13 01:53:04;;;;;;;7.50;5.75;;;;;;;;;;5068643;28;20616;-51
2022/10/13 01:55:30;;;;;;;7.50;5.75;;;;;;;;;;5079725;28;20035;-50
2022/10/13 01:57:57;;;;;;;6.88;5.45;;;;;;;;;;5085037;28;20054;-47
2022/10/13 02:00:24;;;;;;;8.23;6.30;;;;;;;;;;5086779;28;20031;-50
2022/10/13 02:02:59;;;;;;;10.25;6.28;;;;;;;;;;5086026;28;20411;-49
2022/10/13 02:05:41;;;;;;;9.40;6.30;;;;;;;;;;5086635;28;20571;-47
2022/10/13 02:08:09;;;;;;;10.80;6.57;;;;;;;;;;5084610;28;20024;-48
2022/10/13 02:10:38;;;;;;;8.95;6.20;;;;;;;;;;5086789;28;20099;-49
2022/10/13 02:13:06;;;;;;;7.78;5.45;;;;;;;;;;5087557;28;20515;-50
2022/10/13 02:15:35;;;;;;;8.25;6.40;;;;;;;;;;5087430;28;20031;-48
2022/10/13 02:18:02;;;;;;;8.98;6.38;;;;;;;;;;5087347;28;20572;-51
2022/10/13 02:20:28;;;;;;;8.40;5.95;;;;;;;;;;5087845;28;20024;-48
2022/10/13 02:23:02;;;;;;;7.50;5.50;;;;;;;;;;5088154;28;20797;-50
2022/10/13 02:25:28;;;;;;;8.43;6.07;;;;;;;;;;5086581;28;20035;-50
2022/10/13 02:27:55;;;;;;;8.07;5.72;;;;;;;;;;5087912;28;20046;-52
2022/10/13 02:30:26;;;;;;;7.78;5.53;;;;;;;;;;5086850;28;20428;-51
2022/10/13 02:32:52;;;;;;;9.43;6.05;;;;;;;;;;5087181;28;20103;-50
2022/10/13 02:35:18;;;;;;;9.02;5.75;;;;;;;;;;5085741;28;20039;-50
2022/10/13 02:37:44;;;;;;;8.50;6.07;;;;;;;;;;5087367;28;20040;-49
2022/10/13 02:40:10;;;;;;;7.53;5.47;;;;;;;;;;5087184;28;20105;-51
2022/10/13 02:42:36;;;;;;;5.55;4.43;;;;;;;;;;5086899;28;20030;-47
2022/10/13 02:45:03;;;;;;;7.88;5.50;;;;;;;;;;5086858;28;20028;-50
2022/10/13 02:47:29;;;;;;;8.25;4.88;;;;;;;;;;5086823;28;20453;-51
2022/10/13 02:49:55;;;;;;;6.43;4.38;;;;;;;;;;5087088;28;20539;-49
2022/10/13 02:52:21;;;;;;;6.97;4.40;;;;;;;;;;5086918;28;20043;-51
2022/10/13 02:54:47;;;;;;;8.55;3.97;;;;;;;;;;5086983;28;20055;-51
2022/10/13 02:57:13;;;;;;;6.20;4.57;;;;;;;;;;5086673;28;20483;-50
2022/10/13 02:59:39;;;;;;;6.95;4.32;;;;;;;;;;5086700;28;20032;-48
2022/10/13 03:02:06;;;;;;;5.97;4.40;;;;;;;;;;5086028;28;20036;-50
2022/10/13 03:04:32;;;;;;;5.43;4.07;;;;;;;;;;5086426;28;20066;-50
2022/10/13 03:06:58;;;;;;;5.45;4.10;;;;;;;;;;5086870;28;20506;-48
2022/10/13 03:09:24;;;;;;;5.97;4.47;;;;;;;;;;5086454;28;20030;-47
2022/10/13 03:11:50;;;;;;;6.18;4.25;;;;;;;;;;5086979;28;20020;-49
2022/10/13 03:14:17;;;;;;;8.15;5.25;;;;;;;;;;5085928;28;20020;-51
2022/10/13 03:16:43;;;;;;;6.70;4.57;;;;;;;;;;5085543;28;20024;-50
2022/10/13 03:19:09;;;;;;;6.90;5.07;;;;;;;;;;5086629;28;20494;-51
2022/10/13 03:21:36;;;;;;;8.25;5.07;;;;;;;;;;5086553;28;20043;-50
2022/10/13 03:24:04;;;;;;;7.68;5.13;;;;;;;;;;5085195;28;20024;-48
2022/10/13 03:26:30;;;;;;;8.52;4.90;;;;;;;;;;5085572;28;20028;-52
2022/10/13 03:28:56;;;;;;;7.03;4.60;;;;;;;;;;5086891;28;20062;-48
2022/10/13 03:31:22;;;;;;;7.03;4.20;;;;;;;;;;5086831;28;20498;-50
2022/10/13 03:33:49;;;;;;;8.15;4.95;;;;;;;;;;5086227;28;20093;-51
2022/10/13 03:36:15;;;;;;;5.95;4.80;;;;;;;;;;5085903;28;20039;-49
2022/10/13 03:38:41;;;;;;;7.88;5.00;;;;;;;;;;5086262;28;20371;-49
2022/10/13 03:41:11;;;;;;;6.03;4.55;;;;;;;;;;5086432;28;20103;-52
2022/10/13 03:43:38;;;;;;;7.07;3.83;;;;;;;;;;5086095;28;20165;-50
2022/10/13 03:46:05;;;;;;;7.65;4.18;;;;;;;;;;5086287;28;20035;-52
2022/10/13 03:48:31;;;;;;;5.80;3.65;;;;;;;;;;5086129;28;20039;-47
2022/10/13 03:50:57;;;;;;;4.13;3.42;;;;;;;;;;5069015;28;20040;-51
2022/10/13 03:53:23;;;;;;;5.50;3.85;;;;;;;;;;5066612;28;20100;-49
2022/10/13 03:55:53;;;;;;;4.53;3.45;;;;;;;;;;5065754;28;20107;-49
2022/10/13 03:58:20;;;;;;;4.22;3.65;;;;;;;;;;5065975;28;20028;-51
2022/10/13 04:00:46;;;;;;;5.13;3.78;;;;;;;;;;5065704;28;20043;-47
2022/10/13 04:03:12;;;;;;;5.75;4.18;;;;;;;;;;5065975;28;20020;-51
2022/10/13 04:05:38;;;;;;;5.95;3.50;;;;;;;;;;5082043;28;20071;-49
2022/10/13 04:08:05;;;;;;;4.80;3.88;;;;;;;;;;5086128;28;20035;-48
2022/10/13 04:10:31;;;;;;;4.57;3.30;;;;;;;;;;5085651;28;20021;-51
2022/10/13 04:12:57;;;;;;;7.13;4.10;;;;;;;;;;5086160;28;20028;-49
2022/10/13 04:15:23;;;;;;;6.05;4.10;;;;;;;;;;5085621;28;20395;-49
2022/10/13 04:17:49;;;;;;;7.63;4.25;;;;;;;;;;5086000;28;20024;-51
2022/10/13 04:20:15;;;;;;;6.07;4.20;;;;;;;;;;5086010;28;20085;-51
2022/10/13 04:22:41;;;;;;;5.85;4.40;;;;;;;;;;5084711;28;20119;-52
2022/10/13 04:25:08;;;;;;;6.65;3.75;;;;;;;;;;5086733;28;20028;-51
2022/10/13 04:27:37;;;;;;;6.88;4.32;;;;;;;;;;5089436;28;20119;-50
2022/10/13 04:30:04;;;;;;;6.53;4.88;;;;;;;;;;5089636;28;20020;-49
2022/10/13 04:32:30;;;;;;;8.50;4.18;;;;;;;;;;5089487;28;20035;-49
2022/10/13 04:34:56;;;;;;;8.48;4.40;;;;;;;;;;5090174;28;20520;-50
2022/10/13 04:37:22;;;;;;;7.72;4.10;;;;;;;;;;5077349;28;20056;-49
2022/10/13 04:39:48;;;;;;;7.28;4.50;;;;;;;;;;5068917;28;20527;-51
2022/10/13 04:42:15;;;;;;;5.15;4.10;;;;;;;;;;5069303;28;20025;-50
2022/10/13 04:44:41;;;;;;;5.97;4.28;;;;;;;;;;5068788;28;20503;-49
2022/10/13 04:47:07;;;;;;;9.27;4.60;;;;;;;;;;5069224;28;20372;-49
2022/10/13 04:49:33;;;;;;;8.20;4.55;;;;;;;;;;5068880;28;20039;-48
2022/10/13 04:52:00;;;;;;;5.95;4.28;;;;;;;;;;5069052;28;20052;-48
2022/10/13 04:54:26;;;;;;;9.60;4.05;;;;;;;;;;5069574;28;20072;-49
2022/10/13 04:56:52;;;;;;;6.50;4.55;;;;;;;;;;5069362;28;20031;-50
2022/10/13 04:59:18;;;;;;;5.80;3.97;;;;;;;;;;5080403;28;20435;-47
2022/10/13 05:01:44;;;;;;;7.88;4.57;;;;;;;;;;5088987;28;20031;-48
2022/10/13 05:04:10;;;;;;;5.15;3.83;;;;;;;;;;5088769;28;20035;-49
2022/10/13 05:06:38;;;;;;;8.30;5.00;;;;;;;;;;5088722;28;20024;-51
2022/10/13 05:09:04;;;;;;;9.20;4.70;;;;;;;;;;5088865;28;20032;-48
2022/10/13 05:11:31;;;;;;;6.57;4.45;;;;;;;;;;5088602;28;20024;-50
2022/10/13 05:13:57;;;;;;;6.38;4.65;;;;;;;;;;5088252;28;20123;-50
2022/10/13 05:16:24;;;;;;;6.75;4.55;;;;;;;;;;5089541;28;20411;-50
2022/10/13 05:18:51;;;;;;;6.38;4.85;;;;;;;;;;5088814;28;20039;-51
2022/10/13 05:21:21;;;;;;;7.00;5.13;;;;;;;;;;5088722;28;20084;-48
2022/10/13 05:23:48;;;;;;;6.70;4.68;;;;;;;;;;5088348;28;20508;-47
2022/10/13 05:26:15;;;;;;;6.85;5.03;;;;;;;;;;5071687;28;20074;-51
2022/10/13 05:28:41;;;;;;;8.05;4.82;;;;;;;;;;5068166;28;20515;-50
2022/10/13 05:31:12;;;;;;;7.80;4.75;;;;;;;;;;5068347;28;20507;-48
2022/10/13 05:33:38;;;;;;;7.35;4.82;;;;;;;;;;5079253;28;20446;-49
2022/10/13 05:36:06;;;;;;;6.93;4.63;;;;;;;;;;5088128;28;20043;-48
2022/10/13 05:38:32;;;;;;;6.35;4.68;;;;;;;;;;5088237;28;20064;-48
2022/10/13 05:41:01;;;;;;;6.13;4.82;;;;;;;;;;5087564;28;20024;-51
2022/10/13 05:43:27;;;;;;;6.10;4.18;;;;;;;;;;5088168;28;20142;-51
2022/10/13 05:45:53;;;;;;;5.57;4.30;;;;;;;;;;5088523;28;20038;-49
2022/10/13 05:48:19;;;;;;;6.07;4.00;;;;;;;;;;5087067;28;20028;-48
2022/10/13 05:50:45;;;;;;;5.72;4.10;;;;;;;;;;5087992;28;20016;-50
2022/10/13 05:53:12;;;;;;;6.95;4.30;;;;;;;;;;5086855;28;20491;-50
2022/10/13 05:55:38;;;;;;;6.85;4.30;;;;;;;;;;5087186;28;20036;-51
2022/10/13 05:58:04;;;;;;;5.38;4.20;;;;;;;;;;5088322;28;20421;-47
2022/10/13 06:00:30;;;;;;;5.88;4.10;;;;;;;;;;5079575;28;20116;-48
2022/10/13 06:03:03;;;;;;;7.78;4.38;;;;;;;;;;5068532;28;20047;-46
2022/10/13 06:05:31;;;;;;;7.57;4.65;;;;;;;;;;5077122;28;20028;-48
2022/10/13 06:07:58;;;;;;;5.07;4.22;;;;;;;;;;5069600;28;20100;-48
2022/10/13 06:10:24;;;;;;;5.53;3.97;;;;;;;;;;5071355;28;20028;-48
2022/10/13 06:12:50;;;;;;;5.47;4.03;;;;;;;;;;5068871;28;20025;-48
2022/10/13 06:15:16;;;;;;;5.70;4.30;;;;;;;;;;5075352;28;20032;-47
2022/10/13 06:17:42;;;;;;;5.93;4.25;;;;;;;;;;5087375;28;20165;-51
2022/10/13 06:20:09;;;;;;;6.85;4.22;;;;;;;;;;5083309;28;20032;-52
2022/10/13 06:22:35;;;;;;;6.00;4.10;;;;;;;;;;5087090;28;20103;-49
2022/10/13 06:25:02;;;;;;;5.90;3.72;;;;;;;;;;5085597;28;20032;-50
2022/10/13 06:27:28;;;;;;;6.15;4.10;;;;;;;;;;5070492;28;20032;-50
2022/10/13 06:29:54;;;;;;;4.78;3.47;;;;;;;;;;5067654;28;20120;-49
2022/10/13 06:32:20;;;;;;;5.13;4.07;;;;;;;;;;5067291;28;20056;-51
2022/10/13 06:34:46;;;;;;;5.25;3.75;;;;;;;;;;5078634;28;20038;-51
2022/10/13 06:37:12;;;;;;;5.10;3.70;;;;;;;;;;5085263;28;20148;-52
2022/10/13 06:39:38;;;;;;;4.88;3.78;;;;;;;;;;5085845;28;20027;-48
2022/10/13 06:42:05;;;;;;;5.25;3.88;;;;;;;;;;5080368;28;20099;-48
2022/10/13 06:44:32;;;;;;;6.07;3.65;;;;;;;;;;5078864;28;20024;-52
2022/10/13 06:46:58;;;;;;;5.97;3.85;;;;;;;;;;5084250;28;20398;-52
2022/10/13 06:49:24;;;;;;;4.97;4.03;;;;;;;;;;5088061;28;20020;-49
2022/10/13 06:51:51;;;;;;;5.45;3.80;;;;;;;;;;5085770;28;20040;-50
2022/10/13 06:54:17;;;;;;;4.93;3.63;;;;;;;;;;5082658;28;20527;-48
2022/10/13 06:56:43;;;;;;;4.35;3.42;;;;;;;;;;5085806;28;20093;-49
2022/10/13 06:59:09;;;;;;;4.28;3.10;;;;;;;;;;5084777;28;20028;-50
2022/10/13 07:01:35;;;;;;;3.97;3.40;;;;;;;;;;5086087;28;20027;-51
2022/10/13 07:04:01;;;;;;;4.57;3.55;;;;;;;;;;5073865;28;20027;-51
2022/10/13 07:06:27;;;;;;;4.88;3.47;;;;;;;;;;5082177;28;20067;-48
2022/10/13 07:08:53;;;;;;;5.60;3.88;;;;;;;;;;5086448;28;20056;-51
2022/10/13 07:11:19;;;;;;;5.95;3.97;;;;;;;;;;5066173;28;20029;-51
2022/10/13 07:13:46;;;;;;;4.13;3.33;;;;;;;;;;5065801;28;20095;-50
2022/10/13 07:16:12;;;;;;;4.82;3.90;;;;;;;;;;5071833;28;20050;-50
2022/10/13 07:18:38;;;;;;;4.80;3.70;;;;;;;;;;5083660;28;20020;-48
2022/10/13 07:21:05;;;;;;;5.35;3.97;;;;;;;;;;5065874;28;20033;-49
2022/10/13 07:23:31;;;;;;;5.32;4.05;;;;;;;;;;5065864;28;20587;-49
2022/10/13 07:25:58;;;;;;;6.00;3.83;;;;;;;;;;5077605;28;20495;-50
2022/10/13 07:28:24;;;;;;;4.40;3.83;;;;;;;;;;5086135;28;20031;-51
2022/10/13 07:30:50;;;;;;;3.88;3.40;;;;;;;;;;5069026;28;20025;-49
2022/10/13 07:33:18;;;;;;;5.32;4.05;;;;;;;;;;5075289;28;20190;-50
2022/10/13 07:35:44;;;;;;;4.80;3.95;;;;;;;;;;5084299;28;20395;-51
2022/10/13 07:38:11;;;;;;;5.25;3.95;;;;;;;;;;5086347;28;20494;-48
2022/10/13 07:40:38;;;;;;;4.55;3.78;;;;;;;;;;5086173;28;20036;-52
2022/10/13 07:43:04;;;;;;;5.53;4.30;;;;;;;;;;5084544;28;20080;-47
2022/10/13 07:45:31;;;;;;;5.68;4.55;;;;;;;;;;5084106;28;20460;-47
2022/10/13 07:47:57;;;;;;;4.55;3.63;;;;;;;;;;5084601;28;20024;-49
2022/10/13 07:50:24;;;;;;;5.05;3.95;;;;;;;;;;5085563;28;20051;-48
2022/10/13 07:52:50;;;;;;;4.00;3.15;;;;;;;;;;5084641;28;20105;-52
2022/10/13 07:55:16;;;;;;;4.07;3.53;;;;;;;;;;5085146;28;20062;-52
2022/10/13 07:57:42;;;;;;;4.50;3.58;;;;;;;;;;5085676;28;20028;-52
2022/10/13 08:00:09;;;;;;;5.43;4.25;;;;;;;;;;5087519;28;20034;-51
2022/10/13 08:02:35;;;;;;;4.20;3.53;;;;;;;;;;5087453;28;20032;-49
2022/10/13 08:05:02;;;;;;;5.00;3.60;;;;;;;;;;5088713;28;20502;-48
2022/10/13 08:07:28;;;;;;;5.95;3.50;;;;;;;;;;5088364;28;20403;-50
2022/10/13 08:09:55;;;;;;;4.90;3.47;;;;;;;;;;5089205;28;20028;-48
2022/10/13 08:12:21;;;;;;;4.97;3.42;;;;;;;;;;5088271;28;20016;-50
2022/10/13 08:14:49;;;;;;;4.80;3.53;;;;;;;;;;5088540;28;20875;-50
2022/10/13 08:17:16;;;;;;;4.13;3.38;;;;;;;;;;5088422;28;20060;-51
2022/10/13 08:19:42;;;;;;;3.50;2.78;;;;;;;;;;5088203;28;20110;-49
2022/10/13 08:22:09;;;;;;;3.22;2.78;;;;;;;;;;5088370;28;20456;-49
2022/10/13 08:24:36;;;;;;;4.00;2.80;;;;;;;;;;5087719;28;20063;-49
2022/10/13 08:27:02;;;;;;;4.07;2.88;;;;;;;;;;5087785;28;20025;-49
2022/10/13 08:29:28;;;;;;;3.90;3.22;;;;;;;;;;5088189;28;20028;-46
2022/10/13 08:31:54;;;;;;;3.60;2.50;;;;;;;;;;5089023;28;20026;-49
2022/10/13 08:34:20;;;;;;;3.38;3.00;;;;;;;;;;5088178;28;20037;-47
2022/10/13 08:36:46;;;;;;;3.47;2.90;;;;;;;;;;5088121;28;20031;-49
2022/10/13 08:39:13;;;;;;;3.67;2.97;;;;;;;;;;5088185;28;20105;-52
2022/10/13 08:41:45;;;;;;;3.60;2.90;;;;;;;;;;5088022;28;20034;-48
2022/10/13 08:44:14;;;;;;;3.78;3.10;;;;;;;;;;5087676;28;20499;-49
2022/10/13 08:46:46;;;;;;;3.25;2.80;;;;;;;;;;5087645;28;20081;-51
2022/10/13 08:49:13;;;;;;;2.75;2.47;;;;;;;;;;5087968;28;20407;-50
2022/10/13 08:51:41;;;;;;;4.13;2.90;;;;;;;;;;5087496;28;20056;-48
2022/10/13 08:54:07;;;;;;;5.22;3.03;;;;;;;;;;5087691;28;20036;-47
2022/10/13 08:56:34;;;;;;;4.18;3.00;;;;;;;;;;5087543;28;20098;-49
2022/10/13 08:59:03;;;;;;;4.32;2.95;;;;;;;;;;5087463;28;20019;-50
2022/10/13 09:01:35;;;;;;;3.28;2.90;;;;;;;;;;5087549;28;20044;-49
2022/10/13 09:04:24;;;;;;;3.40;3.08;;;;;;;;;;5087379;28;20107;-48
2022/10/13 09:06:55;;;;;;;3.70;3.00;;;;;;;;;;5081711;28;20032;-51
2022/10/13 09:09:23;;;;;;;3.22;2.60;;;;;;;;;;5087628;28;20463;-48
2022/10/13 09:11:50;;;;;;;5.63;3.05;;;;;;;;;;5086419;28;20471;-48
2022/10/13 09:14:23;;;;;;;5.13;2.80;;;;;;;;;;5087493;28;20102;-47
2022/10/13 09:16:51;;;;;;;3.15;2.75;;;;;;;;;;5087071;28;20560;-49
2022/10/13 09:19:26;;;;;;;3.00;2.60;;;;;;;;;;5087287;28;20036;-50
2022/10/13 09:21:54;;;;;;;3.35;2.70;;;;;;;;;;5088115;28;20032;-49
2022/10/13 09:24:21;;;;;;;3.17;2.75;;;;;;;;;;5086937;28;20103;-49
2022/10/13 09:26:48;;;;;;;2.95;2.25;;;;;;;;;;5086479;28;20241;-47
2022/10/13 09:29:24;;;;;;;4.47;2.97;;;;;;;;;;5086808;28;20031;-50
2022/10/13 09:31:50;;;;;;;3.40;2.90;;;;;;;;;;5087062;28;20028;-50
2022/10/13 09:34:19;;;;;;;3.50;2.80;;;;;;;;;;5086896;28;20410;-49
2022/10/13 09:36:55;;;;;;;4.00;2.88;;;;;;;;;;5086789;28;20032;-49
2022/10/13 09:39:21;;;;;;;4.10;2.78;;;;;;;;;;5086676;28;20027;-48
2022/10/13 09:41:47;;;;;;;4.30;3.00;;;;;;;;;;5086303;28;20051;-50
2022/10/13 09:44:15;;;;;;;3.53;2.50;;;;;;;;;;5086750;28;20119;-51
2022/10/13 09:46:50;;;;;;;4.10;2.88;;;;;;;;;;5086757;28;20052;-49
2022/10/13 09:49:34;;;;;;;3.72;2.85;;;;;;;;;;5086702;28;20073;-49
2022/10/13 09:52:02;;;;;;;3.25;2.70;;;;;;;;;;5086614;28;20420;-51
2022/10/13 09:54:43;;;;;;;4.18;2.90;;;;;;;;;;5086780;28;20048;-49
2022/10/13 09:57:16;;;;;;;3.53;2.88;;;;;;;;;;5086405;28;20028;-49
2022/10/13 10:00:00;;;;;;;3.83;2.78;;;;;;;;;;5086124;28;20069;-50
2022/10/13 10:02:26;;;;;;;3.83;2.60;;;;;;;;;;5086985;28;20115;-50
2022/10/13 10:04:53;;;;;;;3.60;2.97;;;;;;;;;;5086277;28;20103;-50
2022/10/13 10:07:21;;;;;;;4.65;2.90;;;;;;;;;;5086490;28;20453;-47
2022/10/13 10:09:50;;;;;;;3.17;2.72;;;;;;;;;;5085939;28;20096;-49
2022/10/13 10:12:19;;;;;;;2.92;2.58;;;;;;;;;;5086213;28;20027;-50
2022/10/13 10:14:47;;;;;;;2.92;2.63;;;;;;;;;;5085909;28;20054;-47
2022/10/13 10:17:20;;;;;;;4.35;2.88;;;;;;;;;;5085985;28;20032;-47
2022/10/13 10:20:05;;;;;;;3.92;2.92;;;;;;;;;;5085937;28;20104;-51
2022/10/13 10:22:43;;;;;;;4.75;3.10;;;;;;;;;;5084763;28;20450;-51
2022/10/13 10:25:17;;;;;;;3.30;2.75;;;;;;;;;;5085828;28;20051;-51
2022/10/13 10:27:45;;;;;;;3.53;2.65;;;;;;;;;;5085386;28;20046;-51
2022/10/13 10:30:16;;;;;;;3.45;2.70;;;;;;;;;;5085676;28;20029;-49
2022/10/13 10:32:42;;;;;;;3.13;2.50;;;;;;;;;;5074101;28;20435;-51
2022/10/13 10:35:33;;;;;;;3.97;2.83;;;;;;;;;;5065619;28;20024;-51
2022/10/13 10:38:22;;;;;;;3.67;3.15;;;;;;;;;;5065093;28;20121;-49
2022/10/13 10:40:51;;;;;;;2.90;2.47;;;;;;;;;;5035686;28;20068;-49
2022/10/13 10:43:25;;;;;;;2.45;2.25;;;;;;;;;;5064441;28;20162;-49
2022/10/13 10:45:54;;;;;;;2.85;2.35;;;;;;;;;;5064809;28;20107;-48
2022/10/13 10:48:23;;;;;;;3.88;2.75;;;;;;;;;;5065493;28;20025;-47
2022/10/13 10:50:53;;;;;;;2.65;2.17;;;;;;;;;;5064279;28;20412;-51
2022/10/13 10:53:27;;;;;;;3.38;2.40;;;;;;;;;;5064711;28;20500;-51
2022/10/13 10:56:02;;;;;;;2.20;2.00;;;;;;;;;;5065239;28;20396;-50
2022/10/13 10:58:28;;;;;;;2.08;1.85;;;;;;;;;;5064189;28;20089;-49
2022/10/13 11:00:54;;;;;;;2.53;1.85;;;;;;;;;;5065132;28;20025;-48
2022/10/13 11:03:32;;;;;;;2.05;1.65;;;;;;;;;;5064685;28;20043;-50
2022/10/13 11:05:58;;;;;;;2.25;1.80;;;;;;;;;;5064600;28;20039;-51
2022/10/13 11:08:29;;;;;;;2.55;1.85;;;;;;;;;;5064770;28;20021;-50
2022/10/13 11:11:14;;;;;;;1.80;1.55;;;;;;;;;;5067734;28;20059;-50
2022/10/13 11:13:57;;;;;;;1.98;1.73;;;;;;;;;;5085797;28;20039;-52
2022/10/13 11:16:33;;;;;;;1.98;1.45;;;;;;;;;;5086146;28;20561;-52
2022/10/13 11:19:08;;;;;;;2.00;1.73;;;;;;;;;;5084522;28;20115;-49
2022/10/13 11:22:04;;;;;;;2.10;1.90;;;;;;;;;;5083253;28;21269;-48
2022/10/13 11:24:33;;;;;;;1.85;1.40;;;;;;;;;;5056428;28;20052;-49
2022/10/13 11:27:09;;;;;;;2.38;1.80;;;;;;;;;;5065471;28;20035;-49
2022/10/13 11:29:55;;;;;;;1.45;1.35;;;;;;;;;;5082165;28;20062;-52
2022/10/13 11:32:29;;;;;;;2.92;2.10;;;;;;;;;;5086570;28;20492;-48
2022/10/13 11:35:01;;;;;;;3.95;2.40;;;;;;;;;;5081273;28;20679;-47
2022/10/13 11:37:39;;;;;;;1.75;1.65;;;;;;;;;;5065478;28;20025;-51
2022/10/13 11:40:16;;;;;;;1.83;1.70;;;;;;;;;;5065487;28;20028;-51
2022/10/13 11:42:57;;;;;;;1.80;1.50;;;;;;;;;;5074440;28;20048;-52
2022/10/13 11:45:38;;;;;;;2.90;1.40;;;;;;;;;;5067090;28;20032;-48
2022/10/13 11:48:23;;;;;;;2.65;1.40;;;;;;;;;;5066880;28;20028;-52
2022/10/13 11:51:01;;;;;;;2.50;1.75;;;;;;;;;;5065589;28;20032;-47
2022/10/13 11:53:31;;;;;;;1.40;1.30;;;;;;;;;;5073891;28;20086;-49
2022/10/13 11:56:00;;;;;;;1.60;1.50;;;;;;;;;;5084618;28;20024;-49
2022/10/13 11:58:32;;;;;;;3.10;1.33;;;;;;;;;;5080768;28;20032;-48
2022/10/13 12:00:59;;;;;;;2.25;1.50;;;;;;;;;;5072282;28;20043;-48
2022/10/13 12:03:28;;;;;;;1.80;1.50;;;;;;;;;;5083792;28;20017;-50
2022/10/13 12:05:56;;;;;;;1.75;1.65;;;;;;;;;;5082066;28;20085;-50
2022/10/13 12:08:22;;;;;;;1.30;1.20;;;;;;;;;;5080350;28;20032;-52
2022/10/13 12:10:57;;;;;;;1.20;1.10;;;;;;;;;;5064455;28;20388;-49
2022/10/13 12:13:27;;;;;;;1.33;1.23;;;;;;;;;;5065464;28;20066;-48
2022/10/13 12:15:59;;;;;;;1.58;1.38;;;;;;;;;;5065255;28;20102;-48
2022/10/13 12:18:27;;;;;;;1.83;1.40;;;;;;;;;;5075843;28;20024;-49
2022/10/13 12:21:08;;;;;;;1.40;1.30;;;;;;;;;;5073686;28;20039;-51
2022/10/13 12:23:35;;;;;;;1.25;1.15;;;;;;;;;;5084245;28;20032;-49
2022/10/13 12:26:01;;;;;;;1.60;1.50;;;;;;;;;;5084547;28;20020;-51
2022/10/13 12:28:44;;;;;;;1.33;1.10;;;;;;;;;;5084528;28;20036;-51
2022/10/13 12:31:17;;;;;;;1.40;1.30;;;;;;;;;;5082916;28;20028;-50
2022/10/13 12:33:43;;;;;;;1.48;1.38;;;;;;;;;;5084926;28;20056;-49
2022/10/13 12:36:32;;;;;;;1.42;1.33;;;;;;;;;;5078273;28;20482;-48
2022/10/13 12:39:03;;;;;;;1.10;1.00;;;;;;;;;;5071071;28;20040;-52
2022/10/13 12:41:36;;;;;;;2.00;1.30;;;;;;;;;;5083563;28;20024;-50
2022/10/13 12:44:04;;;;;;;1.50;1.20;;;;;;;;;;5082814;28;20028;-48
2022/10/13 12:46:40;;;;;;;1.48;1.27;;;;;;;;;;5079334;28;20029;-49
2022/10/13 12:49:12;;;;;;;1.35;1.25;;;;;;;;;;5082439;28;20025;-50
2022/10/13 12:51:38;;;;;;;1.42;1.20;;;;;;;;;;5075563;28;20077;-51
2022/10/13 12:54:06;;;;;;;1.40;1.30;;;;;;;;;;5088099;28;20455;-51
2022/10/13 12:56:34;;;;;;;1.30;1.20;;;;;;;;;;5087706;28;20024;-51
2022/10/13 12:59:01;;;;;;;1.52;1.42;;;;;;;;;;5087815;28;20495;-51
2022/10/13 13:01:34;;;;;;;1.85;1.45;;;;;;;;;;5087955;28;20028;-51
2022/10/13 13:04:20;;;;;;;1.20;1.10;;;;;;;;;;5082533;28;20035;-49
2022/10/13 13:06:53;;;;;;;1.83;1.33;;;;;;;;;;5059520;28;20389;-50
2022/10/13 13:09:33;;;;;;;1.50;1.40;;;;;;;;;;5067483;28;20033;-48
2022/10/13 13:12:20;;;;;;;1.70;1.35;;;;;;;;;;5069103;28;20333;-49
2022/10/13 13:14:48;;;;;;;2.67;1.85;;;;;;;;;;5087443;28;20495;-52
2022/10/13 13:17:17;;;;;;;2.03;1.58;;;;;;;;;;5087764;28;20472;-50
2022/10/13 13:19:47;;;;;;;2.00;1.50;;;;;;;;;;5087414;28;20024;-52
2022/10/13 13:22:14;;;;;;;1.23;1.10;;;;;;;;;;5087274;28;20036;-51
2022/10/13 13:24:42;;;;;;;1.27;1.15;;;;;;;;;;5087460;28;20032;-51
2022/10/13 13:27:34;;;;;;;1.20;1.10;;;;;;;;;;5077551;28;20021;-49
2022/10/13 13:30:00;;;;;;;1.33;1.20;;;;;;;;;;5065414;28;20044;-47
2022/10/13 13:32:26;;;;;;;1.27;1.15;;;;;;;;;;5068757;28;20495;-47
2022/10/13 13:34:54;;;;;;;1.00;1.00;;;;;;;;;;5067706;28;20028;-50
2022/10/13 13:37:28;;;;;;;1.20;1.10;;;;;;;;;;5068092;28;20037;-49
2022/10/13 13:39:54;;;;;;;1.25;1.02;;;;;;;;;;5079378;28;20040;-51
2022/10/13 13:42:20;;;;;;;1.02;0.95;;;;;;;;;;5071130;28;20034;-50
2022/10/13 13:44:46;;;;;;;2.22;1.33;;;;;;;;;;5070997;28;20032;-53
2022/10/13 13:47:22;;;;;;;1.27;1.17;;;;;;;;;;5074332;28;20472;-52
2022/10/13 13:49:49;;;;;;;1.48;1.00;;;;;;;;;;5088277;28;20395;-51
2022/10/13 13:52:16;;;;;;;1.10;1.00;;;;;;;;;;5086359;28;20039;-50
2022/10/13 13:54:42;;;;;;;1.20;1.10;;;;;;;;;;5087016;28;20028;-48
2022/10/13 13:57:10;;;;;;;1.08;1.00;;;;;;;;;;5088184;28;20055;-50
2022/10/13 13:59:36;;;;;;;0.95;0.90;;;;;;;;;;5088135;28;20479;-52
2022/10/13 14:02:02;;;;;;;1.48;1.08;;;;;;;;;;5087635;28;20024;-51
2022/10/13 14:04:29;;;;;;;1.50;1.10;;;;;;;;;;5084682;28;20032;-51
2022/10/13 14:06:55;;;;;;;1.65;1.15;;;;;;;;;;5076793;28;20082;-50
2022/10/13 14:09:21;;;;;;;1.30;1.20;;;;;;;;;;5083637;28;20430;-49
2022/10/13 14:11:47;;;;;;;2.25;1.27;;;;;;;;;;5080430;28;20461;-48
2022/10/13 14:14:13;;;;;;;3.13;1.20;;;;;;;;;;5067422;28;20284;-48
2022/10/13 14:16:40;;;;;;;1.13;1.02;;;;;;;;;;5073795;28;20057;-47
2022/10/13 14:19:07;;;;;;;1.30;1.13;;;;;;;;;;5082752;28;20051;-52
2022/10/13 14:21:35;;;;;;;1.38;1.15;;;;;;;;;;5070339;28;20020;-49
2022/10/13 14:24:01;;;;;;;1.23;1.08;;;;;;;;;;5068340;28;20048;-51
2022/10/13 14:26:27;;;;;;;1.08;0.98;;;;;;;;;;5086448;28;20490;-52
2022/10/13 14:28:53;;;;;;;1.20;1.05;;;;;;;;;;5087193;28;20101;-49
2022/10/13 14:31:19;;;;;;;0.95;0.90;;;;;;;;;;5085977;28;20052;-48
2022/10/13 14:33:45;;;;;;;2.35;1.63;;;;;;;;;;5086318;28;20063;-49
2022/10/13 14:36:11;;;;;;;1.30;1.20;;;;;;;;;;5085571;28;20065;-48
2022/10/13 14:38:37;;;;;;;1.85;1.13;;;;;;;;;;5086520;28;20035;-49
2022/10/13 14:41:05;;;;;;;1.20;1.10;;;;;;;;;;5086882;28;20487;-52
2022/10/13 14:43:31;;;;;;;1.30;1.20;;;;;;;;;;5084603;28;20093;-49
2022/10/13 14:46:01;;;;;;;1.40;1.17;;;;;;;;;;5086487;28;20035;-50
2022/10/13 14:48:32;;;;;;;1.20;1.10;;;;;;;;;;5086473;28;20051;-51
2022/10/13 14:50:58;;;;;;;1.25;1.00;;;;;;;;;;5072245;28;20020;-48
2022/10/13 14:53:25;;;;;;;1.60;1.38;;;;;;;;;;5083739;28;20067;-50